sensor_id;sensor_type;location;lat;lon;timestamp;P1;durP1;ratioP1;P2;durP2;ratioP2
52180;SDS011;38158;53.338;6.514;2023-03-22T00:01:54;21.55;;;12.68;;
52180;SDS011;38158;53.338;6.514;2023-03-22T00:04:20;24.13;;;11.52;;
52180;SDS011;38158;53.338;6.514;2023-03-22T00:06:46;24.38;;;11.75;;
52180;SDS011;38158;53.338;6.514;2023-03-22T00:09:12;21.73;;;10.85;;
52180;SDS011;38158;53.338;6.514;2023-03-22T00:11:38;22.65;;;11.60;;
52180;SDS011;38158;53.338;6.514;2023-03-22T00:14:03;19.30;;;9.85;;
52180;SDS011;38158;53.338;6.514;2023-03-22T00:16:30;22.50;;;9.93;;
52180;SDS011;38158;53.338;6.514;2023-03-22T00:18:56;19.35;;;9.70;;
52180;SDS011;38158;53.338;6.514;2023-03-22T00:21:21;24.33;;;8.90;;
52180;SDS011;38158;53.338;6.514;2023-03-22T00:23:47;15.13;;;8.10;;
52180;SDS011;38158;53.338;6.514;2023-03-22T00:26:13;15.00;;;6.63;;
52180;SDS011;38158;53.338;6.514;2023-03-22T00:28:39;14.65;;;6.82;;
52180;SDS011;38158;53.338;6.514;2023-03-22T00:31:06;14.90;;;6.07;;
52180;SDS011;38158;53.338;6.514;2023-03-22T00:33:32;19.50;;;6.20;;
52180;SDS011;38158;53.338;6.514;2023-03-22T00:36:03;17.05;;;6.38;;
52180;SDS011;38158;53.338;6.514;2023-03-22T00:38:33;15.90;;;5.75;;
52180;SDS011;38158;53.338;6.514;2023-03-22T00:41:24;13.07;;;4.85;;
52180;SDS011;38158;53.338;6.514;2023-03-22T00:43:49;14.15;;;4.78;;
52180;SDS011;38158;53.338;6.514;2023-03-22T00:46:16;13.50;;;4.50;;
52180;SDS011;38158;53.338;6.514;2023-03-22T00:48:44;14.73;;;4.20;;
52180;SDS011;38158;53.338;6.514;2023-03-22T00:51:09;10.57;;;3.08;;
52180;SDS011;38158;53.338;6.514;2023-03-22T00:53:35;13.85;;;3.38;;
52180;SDS011;38158;53.338;6.514;2023-03-22T00:56:05;11.50;;;2.83;;
52180;SDS011;38158;53.338;6.514;2023-03-22T00:58:31;8.57;;;3.10;;
52180;SDS011;38158;53.338;6.514;2023-03-22T01:00:57;12.07;;;2.95;;
52180;SDS011;38158;53.338;6.514;2023-03-22T01:03:23;14.23;;;3.20;;
52180;SDS011;38158;53.338;6.514;2023-03-22T01:05:50;10.93;;;2.67;;
52180;SDS011;38158;53.338;6.514;2023-03-22T01:08:19;11.57;;;3.13;;
52180;SDS011;38158;53.338;6.514;2023-03-22T01:10:47;9.50;;;2.55;;
52180;SDS011;38158;53.338;6.514;2023-03-22T01:13:13;11.50;;;2.90;;
52180;SDS011;38158;53.338;6.514;2023-03-22T01:15:39;11.40;;;2.67;;
52180;SDS011;38158;53.338;6.514;2023-03-22T01:18:06;13.47;;;2.73;;
52180;SDS011;38158;53.338;6.514;2023-03-22T01:20:32;12.43;;;2.58;;
52180;SDS011;38158;53.338;6.514;2023-03-22T01:22:59;8.90;;;2.08;;
52180;SDS011;38158;53.338;6.514;2023-03-22T01:25:25;10.95;;;2.35;;
52180;SDS011;38158;53.338;6.514;2023-03-22T01:27:50;10.75;;;2.58;;
52180;SDS011;38158;53.338;6.514;2023-03-22T01:30:16;9.88;;;2.03;;
52180;SDS011;38158;53.338;6.514;2023-03-22T01:32:42;11.82;;;2.20;;
52180;SDS011;38158;53.338;6.514;2023-03-22T01:35:08;9.07;;;2.30;;
52180;SDS011;38158;53.338;6.514;2023-03-22T01:37:33;12.38;;;1.80;;
52180;SDS011;38158;53.338;6.514;2023-03-22T01:39:59;10.23;;;2.03;;
52180;SDS011;38158;53.338;6.514;2023-03-22T01:42:25;8.93;;;2.20;;
52180;SDS011;38158;53.338;6.514;2023-03-22T01:50:11;6.95;;;1.83;;
52180;SDS011;38158;53.338;6.514;2023-03-22T01:52:38;9.60;;;1.83;;
52180;SDS011;38158;53.338;6.514;2023-03-22T01:55:05;8.95;;;1.60;;
52180;SDS011;38158;53.338;6.514;2023-03-22T01:57:33;6.10;;;1.17;;
52180;SDS011;38158;53.338;6.514;2023-03-22T02:00:04;9.52;;;1.33;;
52180;SDS011;38158;53.338;6.514;2023-03-22T02:02:37;8.02;;;1.60;;
52180;SDS011;38158;53.338;6.514;2023-03-22T02:05:03;11.38;;;1.60;;
52180;SDS011;38158;53.338;6.514;2023-03-22T02:07:29;6.80;;;1.35;;
52180;SDS011;38158;53.338;6.514;2023-03-22T02:09:56;7.78;;;1.60;;
52180;SDS011;38158;53.338;6.514;2023-03-22T02:18:04;9.45;;;1.73;;
52180;SDS011;38158;53.338;6.514;2023-03-22T02:31:57;10.32;;;1.50;;
52180;SDS011;38158;53.338;6.514;2023-03-22T02:45:15;6.32;;;1.30;;
52180;SDS011;38158;53.338;6.514;2023-03-22T02:47:53;9.85;;;2.38;;
52180;SDS011;38158;53.338;6.514;2023-03-22T02:50:41;7.38;;;1.23;;
52180;SDS011;38158;53.338;6.514;2023-03-22T02:55:44;8.02;;;1.58;;
52180;SDS011;38158;53.338;6.514;2023-03-22T02:58:26;12.50;;;2.38;;
52180;SDS011;38158;53.338;6.514;2023-03-22T03:01:17;10.55;;;1.73;;
52180;SDS011;38158;53.338;6.514;2023-03-22T03:03:48;11.45;;;1.75;;
52180;SDS011;38158;53.338;6.514;2023-03-22T03:06:17;6.78;;;1.25;;
52180;SDS011;38158;53.338;6.514;2023-03-22T03:08:47;11.45;;;2.47;;
52180;SDS011;38158;53.338;6.514;2023-03-22T03:11:17;9.23;;;1.75;;
52180;SDS011;38158;53.338;6.514;2023-03-22T03:13:48;12.65;;;1.77;;
52180;SDS011;38158;53.338;6.514;2023-03-22T03:16:15;12.18;;;1.73;;
52180;SDS011;38158;53.338;6.514;2023-03-22T03:21:36;12.93;;;1.42;;
52180;SDS011;38158;53.338;6.514;2023-03-22T03:27:33;12.15;;;1.83;;
52180;SDS011;38158;53.338;6.514;2023-03-22T03:30:24;10.18;;;1.70;;
52180;SDS011;38158;53.338;6.514;2023-03-22T03:33:07;12.95;;;1.40;;
52180;SDS011;38158;53.338;6.514;2023-03-22T03:35:39;5.55;;;1.60;;
52180;SDS011;38158;53.338;6.514;2023-03-22T03:38:11;9.13;;;1.67;;
52180;SDS011;38158;53.338;6.514;2023-03-22T03:40:44;12.57;;;1.95;;
52180;SDS011;38158;53.338;6.514;2023-03-22T03:43:13;11.88;;;1.80;;
52180;SDS011;38158;53.338;6.514;2023-03-22T03:45:40;14.73;;;2.08;;
52180;SDS011;38158;53.338;6.514;2023-03-22T03:48:07;13.93;;;1.80;;
52180;SDS011;38158;53.338;6.514;2023-03-22T03:50:37;11.23;;;1.83;;
52180;SDS011;38158;53.338;6.514;2023-03-22T03:53:03;14.65;;;1.77;;
52180;SDS011;38158;53.338;6.514;2023-03-22T03:55:29;11.70;;;2.05;;
52180;SDS011;38158;53.338;6.514;2023-03-22T03:57:56;8.75;;;1.35;;
52180;SDS011;38158;53.338;6.514;2023-03-22T04:00:21;10.85;;;2.60;;
52180;SDS011;38158;53.338;6.514;2023-03-22T04:02:47;8.98;;;1.85;;
52180;SDS011;38158;53.338;6.514;2023-03-22T04:05:13;12.38;;;2.00;;
52180;SDS011;38158;53.338;6.514;2023-03-22T04:07:39;9.75;;;1.60;;
52180;SDS011;38158;53.338;6.514;2023-03-22T04:10:05;10.65;;;2.22;;
52180;SDS011;38158;53.338;6.514;2023-03-22T04:12:31;9.93;;;1.20;;
52180;SDS011;38158;53.338;6.514;2023-03-22T04:14:57;12.77;;;2.17;;
52180;SDS011;38158;53.338;6.514;2023-03-22T04:17:23;17.00;;;1.98;;
52180;SDS011;38158;53.338;6.514;2023-03-22T04:19:49;10.00;;;2.15;;
52180;SDS011;38158;53.338;6.514;2023-03-22T04:22:17;10.90;;;2.13;;
52180;SDS011;38158;53.338;6.514;2023-03-22T04:24:43;10.00;;;1.80;;
52180;SDS011;38158;53.338;6.514;2023-03-22T04:27:14;12.38;;;1.88;;
52180;SDS011;38158;53.338;6.514;2023-03-22T04:29:44;8.85;;;2.25;;
52180;SDS011;38158;53.338;6.514;2023-03-22T04:32:14;13.13;;;2.45;;
52180;SDS011;38158;53.338;6.514;2023-03-22T04:34:46;14.10;;;2.45;;
52180;SDS011;38158;53.338;6.514;2023-03-22T04:37:13;12.40;;;2.38;;
52180;SDS011;38158;53.338;6.514;2023-03-22T04:39:40;10.52;;;2.83;;
52180;SDS011;38158;53.338;6.514;2023-03-22T04:42:05;7.90;;;2.15;;
52180;SDS011;38158;53.338;6.514;2023-03-22T04:44:31;14.02;;;2.90;;
52180;SDS011;38158;53.338;6.514;2023-03-22T04:46:57;12.95;;;2.20;;
52180;SDS011;38158;53.338;6.514;2023-03-22T04:49:23;11.65;;;2.50;;
52180;SDS011;38158;53.338;6.514;2023-03-22T04:51:50;11.05;;;2.15;;
52180;SDS011;38158;53.338;6.514;2023-03-22T04:54:17;10.48;;;2.30;;
52180;SDS011;38158;53.338;6.514;2023-03-22T04:56:43;8.23;;;2.28;;
52180;SDS011;38158;53.338;6.514;2023-03-22T04:59:08;11.00;;;2.10;;
52180;SDS011;38158;53.338;6.514;2023-03-22T05:01:34;13.02;;;3.10;;
52180;SDS011;38158;53.338;6.514;2023-03-22T05:04:01;10.98;;;2.15;;
52180;SDS011;38158;53.338;6.514;2023-03-22T05:06:28;8.23;;;2.45;;
52180;SDS011;38158;53.338;6.514;2023-03-22T05:08:57;13.70;;;3.15;;
52180;SDS011;38158;53.338;6.514;2023-03-22T05:11:23;8.00;;;2.95;;
52180;SDS011;38158;53.338;6.514;2023-03-22T05:13:52;9.27;;;3.55;;
52180;SDS011;38158;53.338;6.514;2023-03-22T05:16:18;11.27;;;3.50;;
52180;SDS011;38158;53.338;6.514;2023-03-22T05:18:44;13.63;;;3.80;;
52180;SDS011;38158;53.338;6.514;2023-03-22T05:21:10;18.25;;;4.60;;
52180;SDS011;38158;53.338;6.514;2023-03-22T05:23:40;11.73;;;3.85;;
52180;SDS011;38158;53.338;6.514;2023-03-22T05:28:33;10.88;;;5.05;;
52180;SDS011;38158;53.338;6.514;2023-03-22T05:30:59;12.68;;;5.25;;
52180;SDS011;38158;53.338;6.514;2023-03-22T05:33:25;8.52;;;4.00;;
52180;SDS011;38158;53.338;6.514;2023-03-22T05:35:52;15.70;;;5.63;;
52180;SDS011;38158;53.338;6.514;2023-03-22T05:38:18;15.95;;;5.75;;
52180;SDS011;38158;53.338;6.514;2023-03-22T05:40:43;14.10;;;6.10;;
52180;SDS011;38158;53.338;6.514;2023-03-22T05:43:09;14.82;;;6.15;;
52180;SDS011;38158;53.338;6.514;2023-03-22T05:45:35;15.85;;;6.40;;
52180;SDS011;38158;53.338;6.514;2023-03-22T05:48:01;13.05;;;6.68;;
52180;SDS011;38158;53.338;6.514;2023-03-22T05:50:27;14.17;;;6.53;;
52180;SDS011;38158;53.338;6.514;2023-03-22T05:52:53;19.27;;;6.75;;
52180;SDS011;38158;53.338;6.514;2023-03-22T05:55:19;14.68;;;7.15;;
52180;SDS011;38158;53.338;6.514;2023-03-22T05:57:46;14.80;;;6.85;;
52180;SDS011;38158;53.338;6.514;2023-03-22T06:00:15;14.75;;;6.85;;
52180;SDS011;38158;53.338;6.514;2023-03-22T06:02:43;15.98;;;7.32;;
52180;SDS011;38158;53.338;6.514;2023-03-22T06:05:10;17.75;;;7.82;;
52180;SDS011;38158;53.338;6.514;2023-03-22T06:07:37;13.05;;;7.00;;
52180;SDS011;38158;53.338;6.514;2023-03-22T06:10:04;14.43;;;7.35;;
52180;SDS011;38158;53.338;6.514;2023-03-22T06:12:31;16.23;;;7.63;;
52180;SDS011;38158;53.338;6.514;2023-03-22T06:14:57;22.30;;;8.30;;
52180;SDS011;38158;53.338;6.514;2023-03-22T06:17:23;16.15;;;8.23;;
52180;SDS011;38158;53.338;6.514;2023-03-22T06:19:49;16.52;;;8.07;;
52180;SDS011;38158;53.338;6.514;2023-03-22T06:22:15;14.13;;;7.47;;
52180;SDS011;38158;53.338;6.514;2023-03-22T06:24:41;16.20;;;9.25;;
52180;SDS011;38158;53.338;6.514;2023-03-22T06:27:07;14.85;;;7.55;;
52180;SDS011;38158;53.338;6.514;2023-03-22T06:29:34;14.95;;;7.28;;
52180;SDS011;38158;53.338;6.514;2023-03-22T06:32:00;16.60;;;7.95;;
52180;SDS011;38158;53.338;6.514;2023-03-22T06:34:26;19.85;;;8.48;;
52180;SDS011;38158;53.338;6.514;2023-03-22T06:36:52;18.63;;;8.73;;
52180;SDS011;38158;53.338;6.514;2023-03-22T06:39:20;18.75;;;8.63;;
52180;SDS011;38158;53.338;6.514;2023-03-22T06:41:47;26.42;;;9.52;;
52180;SDS011;38158;53.338;6.514;2023-03-22T06:44:13;17.42;;;8.75;;
52180;SDS011;38158;53.338;6.514;2023-03-22T06:46:39;18.73;;;8.27;;
52180;SDS011;38158;53.338;6.514;2023-03-22T06:49:05;16.17;;;7.95;;
52180;SDS011;38158;53.338;6.514;2023-03-22T06:51:32;18.02;;;9.13;;
52180;SDS011;38158;53.338;6.514;2023-03-22T06:53:58;15.60;;;8.38;;
52180;SDS011;38158;53.338;6.514;2023-03-22T06:56:23;22.33;;;8.95;;
52180;SDS011;38158;53.338;6.514;2023-03-22T06:58:49;16.35;;;8.00;;
52180;SDS011;38158;53.338;6.514;2023-03-22T07:01:16;19.50;;;9.88;;
52180;SDS011;38158;53.338;6.514;2023-03-22T07:03:43;18.02;;;9.35;;
52180;SDS011;38158;53.338;6.514;2023-03-22T07:06:09;19.60;;;8.75;;
52180;SDS011;38158;53.338;6.514;2023-03-22T07:08:35;18.70;;;8.90;;
52180;SDS011;38158;53.338;6.514;2023-03-22T07:11:02;15.90;;;8.32;;
52180;SDS011;38158;53.338;6.514;2023-03-22T07:13:29;17.58;;;9.40;;
52180;SDS011;38158;53.338;6.514;2023-03-22T07:15:58;16.27;;;8.25;;
52180;SDS011;38158;53.338;6.514;2023-03-22T07:18:26;20.45;;;9.32;;
52180;SDS011;38158;53.338;6.514;2023-03-22T07:23:19;16.38;;;9.05;;
52180;SDS011;38158;53.338;6.514;2023-03-22T07:25:46;17.60;;;8.97;;
52180;SDS011;38158;53.338;6.514;2023-03-22T07:28:12;16.65;;;9.55;;
52180;SDS011;38158;53.338;6.514;2023-03-22T07:30:38;14.90;;;8.77;;
52180;SDS011;38158;53.338;6.514;2023-03-22T07:33:05;20.63;;;9.55;;
52180;SDS011;38158;53.338;6.514;2023-03-22T07:35:32;19.08;;;8.02;;
52180;SDS011;38158;53.338;6.514;2023-03-22T07:37:58;20.40;;;8.63;;
52180;SDS011;38158;53.338;6.514;2023-03-22T07:40:24;17.65;;;8.55;;
52180;SDS011;38158;53.338;6.514;2023-03-22T07:42:51;18.70;;;8.82;;
52180;SDS011;38158;53.338;6.514;2023-03-22T07:45:17;13.35;;;7.57;;
52180;SDS011;38158;53.338;6.514;2023-03-22T07:50:10;16.25;;;7.85;;
52180;SDS011;38158;53.338;6.514;2023-03-22T07:52:37;16.98;;;8.50;;
52180;SDS011;38158;53.338;6.514;2023-03-22T07:57:30;18.50;;;7.95;;
52180;SDS011;38158;53.338;6.514;2023-03-22T07:59:56;14.55;;;7.38;;
52180;SDS011;38158;53.338;6.514;2023-03-22T08:02:22;17.67;;;8.05;;
52180;SDS011;38158;53.338;6.514;2023-03-22T08:04:48;18.38;;;9.20;;
52180;SDS011;38158;53.338;6.514;2023-03-22T08:07:15;15.90;;;7.95;;
52180;SDS011;38158;53.338;6.514;2023-03-22T08:09:42;13.90;;;6.93;;
52180;SDS011;38158;53.338;6.514;2023-03-22T08:12:09;17.85;;;7.43;;
52180;SDS011;38158;53.338;6.514;2023-03-22T08:14:35;17.67;;;8.52;;
52180;SDS011;38158;53.338;6.514;2023-03-22T08:17:02;14.27;;;7.28;;
52180;SDS011;38158;53.338;6.514;2023-03-22T08:19:29;13.40;;;7.35;;
52180;SDS011;38158;53.338;6.514;2023-03-22T08:21:56;16.87;;;7.40;;
52180;SDS011;38158;53.338;6.514;2023-03-22T08:24:22;17.05;;;7.05;;
52180;SDS011;38158;53.338;6.514;2023-03-22T08:26:47;12.27;;;6.18;;
52180;SDS011;38158;53.338;6.514;2023-03-22T08:29:16;13.85;;;6.78;;
52180;SDS011;38158;53.338;6.514;2023-03-22T08:31:43;16.00;;;7.68;;
52180;SDS011;38158;53.338;6.514;2023-03-22T08:34:09;11.93;;;5.90;;
52180;SDS011;38158;53.338;6.514;2023-03-22T08:36:36;15.70;;;6.57;;
52180;SDS011;38158;53.338;6.514;2023-03-22T08:39:02;13.45;;;5.60;;
52180;SDS011;38158;53.338;6.514;2023-03-22T08:41:29;10.23;;;4.97;;
52180;SDS011;38158;53.338;6.514;2023-03-22T08:43:55;10.18;;;6.00;;
52180;SDS011;38158;53.338;6.514;2023-03-22T08:46:21;12.68;;;6.65;;
52180;SDS011;38158;53.338;6.514;2023-03-22T08:48:47;17.92;;;6.00;;
52180;SDS011;38158;53.338;6.514;2023-03-22T08:51:17;11.63;;;5.88;;
52180;SDS011;38158;53.338;6.514;2023-03-22T08:53:45;11.00;;;5.75;;
52180;SDS011;38158;53.338;6.514;2023-03-22T08:56:11;14.52;;;6.35;;
52180;SDS011;38158;53.338;6.514;2023-03-22T08:58:39;11.95;;;5.55;;
52180;SDS011;38158;53.338;6.514;2023-03-22T09:01:09;10.82;;;5.00;;
52180;SDS011;38158;53.338;6.514;2023-03-22T09:03:35;14.30;;;5.57;;
52180;SDS011;38158;53.338;6.514;2023-03-22T09:06:01;13.80;;;5.38;;
52180;SDS011;38158;53.338;6.514;2023-03-22T09:08:27;14.30;;;6.07;;
52180;SDS011;38158;53.338;6.514;2023-03-22T09:10:53;13.77;;;5.15;;
52180;SDS011;38158;53.338;6.514;2023-03-22T09:13:19;19.70;;;6.32;;
52180;SDS011;38158;53.338;6.514;2023-03-22T09:15:45;15.93;;;6.10;;
52180;SDS011;38158;53.338;6.514;2023-03-22T09:18:11;14.65;;;5.50;;
52180;SDS011;38158;53.338;6.514;2023-03-22T09:20:37;12.20;;;5.03;;
52180;SDS011;38158;53.338;6.514;2023-03-22T09:23:04;10.38;;;4.60;;
52180;SDS011;38158;53.338;6.514;2023-03-22T09:25:30;12.60;;;5.55;;
52180;SDS011;38158;53.338;6.514;2023-03-22T09:27:56;9.98;;;4.40;;
52180;SDS011;38158;53.338;6.514;2023-03-22T09:30:21;14.38;;;4.70;;
52180;SDS011;38158;53.338;6.514;2023-03-22T09:32:47;10.32;;;4.55;;
52180;SDS011;38158;53.338;6.514;2023-03-22T09:35:13;12.75;;;5.00;;
52180;SDS011;38158;53.338;6.514;2023-03-22T09:37:39;13.10;;;5.10;;
52180;SDS011;38158;53.338;6.514;2023-03-22T09:40:05;11.38;;;3.70;;
52180;SDS011;38158;53.338;6.514;2023-03-22T09:42:39;10.77;;;3.78;;
52180;SDS011;38158;53.338;6.514;2023-03-22T09:45:17;11.27;;;3.97;;
52180;SDS011;38158;53.338;6.514;2023-03-22T09:47:48;10.77;;;3.88;;
52180;SDS011;38158;53.338;6.514;2023-03-22T09:50:21;16.20;;;4.30;;
52180;SDS011;38158;53.338;6.514;2023-03-22T09:52:49;11.27;;;3.60;;
52180;SDS011;38158;53.338;6.514;2023-03-22T09:55:18;10.48;;;4.10;;
52180;SDS011;38158;53.338;6.514;2023-03-22T09:57:53;8.27;;;3.47;;
52180;SDS011;38158;53.338;6.514;2023-03-22T10:11:06;8.73;;;2.83;;
52180;SDS011;38158;53.338;6.514;2023-03-22T10:14:00;11.25;;;3.50;;
52180;SDS011;38158;53.338;6.514;2023-03-22T10:16:33;10.07;;;3.88;;
52180;SDS011;38158;53.338;6.514;2023-03-22T10:19:04;10.20;;;3.83;;
52180;SDS011;38158;53.338;6.514;2023-03-22T10:21:36;10.00;;;3.72;;
52180;SDS011;38158;53.338;6.514;2023-03-22T10:24:03;7.70;;;3.50;;
52180;SDS011;38158;53.338;6.514;2023-03-22T10:26:38;7.20;;;2.97;;
52180;SDS011;38158;53.338;6.514;2023-03-22T10:29:12;9.00;;;3.22;;
52180;SDS011;38158;53.338;6.514;2023-03-22T10:31:46;8.07;;;3.28;;
52180;SDS011;38158;53.338;6.514;2023-03-22T10:36:41;8.95;;;3.20;;
52180;SDS011;38158;53.338;6.514;2023-03-22T10:42:02;9.93;;;3.35;;
52180;SDS011;38158;53.338;6.514;2023-03-22T10:44:34;7.40;;;3.03;;
52180;SDS011;38158;53.338;6.514;2023-03-22T10:47:12;8.13;;;3.67;;
52180;SDS011;38158;53.338;6.514;2023-03-22T10:49:43;10.30;;;4.13;;
52180;SDS011;38158;53.338;6.514;2023-03-22T10:54:54;12.13;;;4.55;;
52180;SDS011;38158;53.338;6.514;2023-03-22T10:57:22;7.40;;;3.88;;
52180;SDS011;38158;53.338;6.514;2023-03-22T10:59:50;9.50;;;3.67;;
52180;SDS011;38158;53.338;6.514;2023-03-22T11:04:58;10.60;;;4.45;;
52180;SDS011;38158;53.338;6.514;2023-03-22T11:07:32;9.38;;;2.80;;
52180;SDS011;38158;53.338;6.514;2023-03-22T11:12:35;9.95;;;3.25;;
52180;SDS011;38158;53.338;6.514;2023-03-22T11:15:02;9.20;;;3.78;;
52180;SDS011;38158;53.338;6.514;2023-03-22T11:17:30;8.80;;;3.30;;
52180;SDS011;38158;53.338;6.514;2023-03-22T11:19:57;10.77;;;3.63;;
52180;SDS011;38158;53.338;6.514;2023-03-22T11:22:29;7.13;;;3.08;;
52180;SDS011;38158;53.338;6.514;2023-03-22T11:25:03;10.73;;;3.33;;
52180;SDS011;38158;53.338;6.514;2023-03-22T11:27:38;9.60;;;3.60;;
52180;SDS011;38158;53.338;6.514;2023-03-22T11:32:45;11.20;;;2.92;;
52180;SDS011;38158;53.338;6.514;2023-03-22T11:35:13;9.00;;;3.07;;
52180;SDS011;38158;53.338;6.514;2023-03-22T11:37:50;9.80;;;2.47;;
52180;SDS011;38158;53.338;6.514;2023-03-22T11:40:24;6.78;;;2.38;;
52180;SDS011;38158;53.338;6.514;2023-03-22T11:42:53;8.25;;;3.47;;
52180;SDS011;38158;53.338;6.514;2023-03-22T11:45:28;10.82;;;2.65;;
52180;SDS011;38158;53.338;6.514;2023-03-22T11:48:04;7.35;;;2.70;;
52180;SDS011;38158;53.338;6.514;2023-03-22T11:50:42;12.50;;;3.45;;
52180;SDS011;38158;53.338;6.514;2023-03-22T11:53:14;12.35;;;4.43;;
52180;SDS011;38158;53.338;6.514;2023-03-22T11:55:42;9.52;;;3.45;;
52180;SDS011;38158;53.338;6.514;2023-03-22T11:58:19;8.18;;;3.42;;
52180;SDS011;38158;53.338;6.514;2023-03-22T12:01:09;7.72;;;3.40;;
52180;SDS011;38158;53.338;6.514;2023-03-22T12:03:57;10.10;;;3.70;;
52180;SDS011;38158;53.338;6.514;2023-03-22T12:06:30;7.03;;;3.08;;
52180;SDS011;38158;53.338;6.514;2023-03-22T12:09:05;8.40;;;3.05;;
52180;SDS011;38158;53.338;6.514;2023-03-22T12:11:51;8.95;;;3.25;;
52180;SDS011;38158;53.338;6.514;2023-03-22T12:20:19;9.65;;;3.63;;
52180;SDS011;38158;53.338;6.514;2023-03-22T12:22:55;7.15;;;3.28;;
52180;SDS011;38158;53.338;6.514;2023-03-22T12:25:26;8.48;;;2.72;;
52180;SDS011;38158;53.338;6.514;2023-03-22T12:28:01;9.70;;;3.78;;
52180;SDS011;38158;53.338;6.514;2023-03-22T12:30:41;7.53;;;3.70;;
52180;SDS011;38158;53.338;6.514;2023-03-22T12:33:18;7.13;;;3.17;;
52180;SDS011;38158;53.338;6.514;2023-03-22T12:36:05;10.07;;;3.83;;
52180;SDS011;38158;53.338;6.514;2023-03-22T12:41:17;8.25;;;3.58;;
52180;SDS011;38158;53.338;6.514;2023-03-22T12:43:58;9.37;;;3.50;;
52180;SDS011;38158;53.338;6.514;2023-03-22T12:46:43;7.10;;;3.28;;
52180;SDS011;38158;53.338;6.514;2023-03-22T12:49:20;10.45;;;4.07;;
52180;SDS011;38158;53.338;6.514;2023-03-22T12:51:47;10.25;;;3.65;;
52180;SDS011;38158;53.338;6.514;2023-03-22T12:54:14;7.30;;;3.08;;
52180;SDS011;38158;53.338;6.514;2023-03-22T12:56:44;9.73;;;4.15;;
52180;SDS011;38158;53.338;6.514;2023-03-22T12:59:14;7.50;;;3.67;;
52180;SDS011;38158;53.338;6.514;2023-03-22T13:01:57;9.88;;;3.60;;
52180;SDS011;38158;53.338;6.514;2023-03-22T13:07:09;9.35;;;3.45;;
52180;SDS011;38158;53.338;6.514;2023-03-22T13:09:37;10.70;;;3.78;;
52180;SDS011;38158;53.338;6.514;2023-03-22T13:38:22;6.47;;;3.40;;
52180;SDS011;38158;53.338;6.514;2023-03-22T13:41:04;8.00;;;4.07;;
52180;SDS011;38158;53.338;6.514;2023-03-22T13:43:35;7.80;;;3.90;;
52180;SDS011;38158;53.338;6.514;2023-03-22T13:59:09;7.18;;;3.88;;
52180;SDS011;38158;53.338;6.514;2023-03-22T14:04:37;8.07;;;3.78;;
52180;SDS011;38158;53.338;6.514;2023-03-22T14:15:55;8.88;;;4.82;;
52180;SDS011;38158;53.338;6.514;2023-03-22T14:18:31;10.20;;;5.10;;
52180;SDS011;38158;53.338;6.514;2023-03-22T14:21:00;7.95;;;5.00;;
52180;SDS011;38158;53.338;6.514;2023-03-22T14:23:32;10.55;;;5.47;;
52180;SDS011;38158;53.338;6.514;2023-03-22T14:26:06;10.43;;;4.93;;
52180;SDS011;38158;53.338;6.514;2023-03-22T14:28:41;7.45;;;5.25;;
52180;SDS011;38158;53.338;6.514;2023-03-22T14:31:41;11.00;;;5.90;;
52180;SDS011;38158;53.338;6.514;2023-03-22T14:34:00;7.20;;;5.10;;
52180;SDS011;38158;53.338;6.514;2023-03-22T14:36:28;11.07;;;5.75;;
52180;SDS011;38158;53.338;6.514;2023-03-22T14:39:06;12.48;;;5.75;;
52180;SDS011;38158;53.338;6.514;2023-03-22T14:42:02;11.65;;;5.30;;
52180;SDS011;38158;53.338;6.514;2023-03-22T14:44:29;10.27;;;5.53;;
52180;SDS011;38158;53.338;6.514;2023-03-22T14:47:14;11.85;;;5.88;;
52180;SDS011;38158;53.338;6.514;2023-03-22T14:49:42;11.10;;;5.35;;
52180;SDS011;38158;53.338;6.514;2023-03-22T14:52:17;10.45;;;5.70;;
52180;SDS011;38158;53.338;6.514;2023-03-22T14:54:47;8.50;;;5.35;;
52180;SDS011;38158;53.338;6.514;2023-03-22T14:57:15;10.40;;;6.15;;
52180;SDS011;38158;53.338;6.514;2023-03-22T14:59:45;9.60;;;6.05;;
52180;SDS011;38158;53.338;6.514;2023-03-22T15:05:04;9.95;;;5.10;;
52180;SDS011;38158;53.338;6.514;2023-03-22T15:07:42;11.25;;;5.95;;
52180;SDS011;38158;53.338;6.514;2023-03-22T15:10:18;9.38;;;5.28;;
52180;SDS011;38158;53.338;6.514;2023-03-22T15:12:54;12.82;;;5.93;;
52180;SDS011;38158;53.338;6.514;2023-03-22T15:15:21;11.15;;;5.45;;
52180;SDS011;38158;53.338;6.514;2023-03-22T15:17:52;9.77;;;5.97;;
52180;SDS011;38158;53.338;6.514;2023-03-22T15:20:22;8.48;;;5.60;;
52180;SDS011;38158;53.338;6.514;2023-03-22T15:22:52;7.80;;;6.03;;
52180;SDS011;38158;53.338;6.514;2023-03-22T15:25:19;11.05;;;6.60;;
52180;SDS011;38158;53.338;6.514;2023-03-22T15:27:54;7.93;;;4.53;;
52180;SDS011;38158;53.338;6.514;2023-03-22T15:30:20;8.30;;;5.35;;
52180;SDS011;38158;53.338;6.514;2023-03-22T15:32:46;7.85;;;4.63;;
52180;SDS011;38158;53.338;6.514;2023-03-22T15:35:13;12.88;;;6.68;;
52180;SDS011;38158;53.338;6.514;2023-03-22T15:37:40;14.05;;;6.72;;
52180;SDS011;38158;53.338;6.514;2023-03-22T15:43:21;10.02;;;5.85;;
52180;SDS011;38158;53.338;6.514;2023-03-22T15:51:08;11.38;;;7.07;;
52180;SDS011;38158;53.338;6.514;2023-03-22T15:53:43;10.68;;;6.88;;
52180;SDS011;38158;53.338;6.514;2023-03-22T15:56:18;12.82;;;7.03;;
52180;SDS011;38158;53.338;6.514;2023-03-22T15:58:51;13.60;;;7.30;;
52180;SDS011;38158;53.338;6.514;2023-03-22T16:01:19;10.32;;;7.28;;
52180;SDS011;38158;53.338;6.514;2023-03-22T16:06:22;11.10;;;6.97;;
52180;SDS011;38158;53.338;6.514;2023-03-22T16:08:53;12.32;;;7.20;;
52180;SDS011;38158;53.338;6.514;2023-03-22T16:11:24;11.65;;;7.20;;
52180;SDS011;38158;53.338;6.514;2023-03-22T16:13:50;11.27;;;7.50;;
52180;SDS011;38158;53.338;6.514;2023-03-22T16:16:18;15.02;;;8.55;;
52180;SDS011;38158;53.338;6.514;2023-03-22T16:18:46;14.70;;;7.60;;
52180;SDS011;38158;53.338;6.514;2023-03-22T16:21:12;11.75;;;7.75;;
52180;SDS011;38158;53.338;6.514;2023-03-22T16:23:40;14.68;;;8.57;;
52180;SDS011;38158;53.338;6.514;2023-03-22T16:26:13;13.80;;;7.18;;
52180;SDS011;38158;53.338;6.514;2023-03-22T16:28:41;11.55;;;7.53;;
52180;SDS011;38158;53.338;6.514;2023-03-22T16:31:11;16.08;;;9.48;;
52180;SDS011;38158;53.338;6.514;2023-03-22T16:33:38;15.02;;;9.75;;
52180;SDS011;38158;53.338;6.514;2023-03-22T16:36:04;13.52;;;8.85;;
52180;SDS011;38158;53.338;6.514;2023-03-22T16:38:33;14.70;;;8.57;;
52180;SDS011;38158;53.338;6.514;2023-03-22T16:40:59;15.23;;;9.77;;
52180;SDS011;38158;53.338;6.514;2023-03-22T16:43:25;18.13;;;9.30;;
52180;SDS011;38158;53.338;6.514;2023-03-22T16:45:51;13.43;;;8.20;;
52180;SDS011;38158;53.338;6.514;2023-03-22T16:48:17;13.85;;;7.90;;
52180;SDS011;38158;53.338;6.514;2023-03-22T16:50:43;14.98;;;9.20;;
52180;SDS011;38158;53.338;6.514;2023-03-22T16:55:42;16.70;;;8.80;;
52180;SDS011;38158;53.338;6.514;2023-03-22T16:58:10;17.52;;;9.95;;
52180;SDS011;38158;53.338;6.514;2023-03-22T17:00:36;13.50;;;9.23;;
52180;SDS011;38158;53.338;6.514;2023-03-22T17:03:03;15.07;;;9.13;;
52180;SDS011;38158;53.338;6.514;2023-03-22T17:05:31;16.15;;;8.63;;
52180;SDS011;38158;53.338;6.514;2023-03-22T17:07:58;17.73;;;8.90;;
52180;SDS011;38158;53.338;6.514;2023-03-22T17:10:25;17.53;;;10.37;;
52180;SDS011;38158;53.338;6.514;2023-03-22T17:12:52;14.98;;;8.50;;
52180;SDS011;38158;53.338;6.514;2023-03-22T17:15:34;15.40;;;9.05;;
52180;SDS011;38158;53.338;6.514;2023-03-22T17:18:06;11.73;;;7.70;;
52180;SDS011;38158;53.338;6.514;2023-03-22T17:20:35;19.20;;;12.05;;
52180;SDS011;38158;53.338;6.514;2023-03-22T17:23:02;14.17;;;9.20;;
52180;SDS011;38158;53.338;6.514;2023-03-22T17:25:31;15.32;;;8.98;;
52180;SDS011;38158;53.338;6.514;2023-03-22T17:27:59;12.65;;;6.47;;